<?xml version="1.0" encoding="UTF-8" standalone="no" ?>
<gpx xmlns="http://www.topografix.com/GPX/1/1" xmlns:xsi="http://www.w3.org/2001/XMLSchema-instance" xsi:schemaLocation="http://www.topografix.com/GPX/1/1 http://www.topografix.com/GPX/1/1/gpx.xsd" version="1.1" creator="VisuGPX - https://www.visugpx.com">
  <metadata>
    <name>ccv_20mars_50km</name>
    <desc><![CDATA[ccv_20mars_50kmccv_20mars_50kmccv_20mars_50kmccv_20mars_50km]]></desc>
  </metadata>
  <trk>
    <name><![CDATA[Toaster Course]]></name>
    <trkseg>
      <trkpt lat="48.63436" lon="6.3131">
        <ele>206</ele>
        <time>2011-03-14T00:00:00Z</time>
      </trkpt>
      <trkpt lat="48.63435" lon="6.31311">
        <ele>205</ele>
        <time>2011-03-14T00:00:00Z</time>
      </trkpt>
      <trkpt lat="48.63393" lon="6.31285">
        <ele>205</ele>
        <time>2011-03-14T00:00:06Z</time>
      </trkpt>
      <trkpt lat="48.63384" lon="6.31263">
        <ele>205</ele>
        <time>2011-03-14T00:00:08Z</time>
      </trkpt>
      <trkpt lat="48.63384" lon="6.31238">
        <ele>205</ele>
        <time>2011-03-14T00:00:10Z</time>
      </trkpt>
      <trkpt lat="48.63388" lon="6.31224">
        <ele>204</ele>
        <time>2011-03-14T00:00:11Z</time>
      </trkpt>
      <trkpt lat="48.63433" lon="6.31123">
        <ele>204</ele>
        <time>2011-03-14T00:00:22Z</time>
      </trkpt>
      <trkpt lat="48.63447" lon="6.31109">
        <ele>204</ele>
        <time>2011-03-14T00:00:24Z</time>
      </trkpt>
      <trkpt lat="48.63412" lon="6.3102">
        <ele>204</ele>
        <time>2011-03-14T00:00:34Z</time>
      </trkpt>
      <trkpt lat="48.63379" lon="6.30934">
        <ele>204</ele>
        <time>2011-03-14T00:00:42Z</time>
      </trkpt>
      <trkpt lat="48.63282" lon="6.3078">
        <ele>203</ele>
        <time>2011-03-14T00:01:01Z</time>
      </trkpt>
      <trkpt lat="48.63271" lon="6.30752">
        <ele>203</ele>
        <time>2011-03-14T00:01:05Z</time>
      </trkpt>
      <trkpt lat="48.63264" lon="6.3072">
        <ele>203</ele>
        <time>2011-03-14T00:01:09Z</time>
      </trkpt>
      <trkpt lat="48.63264" lon="6.30711">
        <ele>203</ele>
        <time>2011-03-14T00:01:10Z</time>
      </trkpt>
      <trkpt lat="48.63281" lon="6.30671">
        <ele>204</ele>
        <time>2011-03-14T00:01:15Z</time>
      </trkpt>
      <trkpt lat="48.63297" lon="6.3062">
        <ele>205</ele>
        <time>2011-03-14T00:01:22Z</time>
      </trkpt>
      <trkpt lat="48.63318" lon="6.3049">
        <ele>207</ele>
        <time>2011-03-14T00:01:41Z</time>
      </trkpt>
      <trkpt lat="48.63219" lon="6.30385">
        <ele>212</ele>
        <time>2011-03-14T00:02:07Z</time>
      </trkpt>
      <trkpt lat="48.63183" lon="6.30453">
        <ele>210</ele>
        <time>2011-03-14T00:02:14Z</time>
      </trkpt>
      <trkpt lat="48.63159" lon="6.30483">
        <ele>209</ele>
        <time>2011-03-14T00:02:18Z</time>
      </trkpt>
      <trkpt lat="48.63195" lon="6.30554">
        <ele>208</ele>
        <time>2011-03-14T00:02:26Z</time>
      </trkpt>
      <trkpt lat="48.63088" lon="6.30676">
        <ele>206</ele>
        <time>2011-03-14T00:02:44Z</time>
      </trkpt>
      <trkpt lat="48.62915" lon="6.30886">
        <ele>207</ele>
        <time>2011-03-14T00:03:16Z</time>
      </trkpt>
      <trkpt lat="48.62882" lon="6.30922">
        <ele>208</ele>
        <time>2011-03-14T00:03:25Z</time>
      </trkpt>
      <trkpt lat="48.62829" lon="6.30968">
        <ele>210</ele>
        <time>2011-03-14T00:03:37Z</time>
      </trkpt>
      <trkpt lat="48.62795" lon="6.31022">
        <ele>210</ele>
        <time>2011-03-14T00:03:46Z</time>
      </trkpt>
      <trkpt lat="48.62697" lon="6.3114">
        <ele>213</ele>
        <time>2011-03-14T00:04:08Z</time>
      </trkpt>
      <trkpt lat="48.62656" lon="6.31216">
        <ele>211</ele>
        <time>2011-03-14T00:04:16Z</time>
      </trkpt>
      <trkpt lat="48.62551" lon="6.31364">
        <ele>208</ele>
        <time>2011-03-14T00:04:35Z</time>
      </trkpt>
      <trkpt lat="48.62467" lon="6.31506">
        <ele>210</ele>
        <time>2011-03-14T00:04:57Z</time>
      </trkpt>
      <trkpt lat="48.62398" lon="6.31655">
        <ele>206</ele>
        <time>2011-03-14T00:05:13Z</time>
      </trkpt>
      <trkpt lat="48.62382" lon="6.31704">
        <ele>207</ele>
        <time>2011-03-14T00:05:20Z</time>
      </trkpt>
      <trkpt lat="48.62382" lon="6.31704">
        <ele>207</ele>
        <time>2011-03-14T00:05:21Z</time>
      </trkpt>
      <trkpt lat="48.62349" lon="6.31834">
        <ele>204</ele>
        <time>2011-03-14T00:05:34Z</time>
      </trkpt>
      <trkpt lat="48.62328" lon="6.31891">
        <ele>203</ele>
        <time>2011-03-14T00:05:39Z</time>
      </trkpt>
      <trkpt lat="48.62264" lon="6.31971">
        <ele>203</ele>
        <time>2011-03-14T00:05:50Z</time>
      </trkpt>
      <trkpt lat="48.62195" lon="6.3208">
        <ele>204</ele>
        <time>2011-03-14T00:06:06Z</time>
      </trkpt>
      <trkpt lat="48.62156" lon="6.32157">
        <ele>205</ele>
        <time>2011-03-14T00:06:17Z</time>
      </trkpt>
      <trkpt lat="48.62096" lon="6.32299">
        <ele>207</ele>
        <time>2011-03-14T00:06:37Z</time>
      </trkpt>
      <trkpt lat="48.62057" lon="6.32378">
        <ele>207</ele>
        <time>2011-03-14T00:06:46Z</time>
      </trkpt>
      <trkpt lat="48.62029" lon="6.32426">
        <ele>207</ele>
        <time>2011-03-14T00:06:51Z</time>
      </trkpt>
      <trkpt lat="48.61992" lon="6.32477">
        <ele>209</ele>
        <time>2011-03-14T00:07:05Z</time>
      </trkpt>
      <trkpt lat="48.61969" lon="6.32501">
        <ele>211</ele>
        <time>2011-03-14T00:07:12Z</time>
      </trkpt>
      <trkpt lat="48.6188" lon="6.32567">
        <ele>217</ele>
        <time>2011-03-14T00:07:39Z</time>
      </trkpt>
      <trkpt lat="48.61844" lon="6.32617">
        <ele>216</ele>
        <time>2011-03-14T00:07:45Z</time>
      </trkpt>
      <trkpt lat="48.61793" lon="6.32707">
        <ele>216</ele>
        <time>2011-03-14T00:07:56Z</time>
      </trkpt>
      <trkpt lat="48.61763" lon="6.32738">
        <ele>216</ele>
        <time>2011-03-14T00:08:01Z</time>
      </trkpt>
      <trkpt lat="48.61723" lon="6.32759">
        <ele>216</ele>
        <time>2011-03-14T00:08:08Z</time>
      </trkpt>
      <trkpt lat="48.61673" lon="6.32761">
        <ele>217</ele>
        <time>2011-03-14T00:08:15Z</time>
      </trkpt>
      <trkpt lat="48.61599" lon="6.32744">
        <ele>219</ele>
        <time>2011-03-14T00:08:32Z</time>
      </trkpt>
      <trkpt lat="48.6157" lon="6.3276">
        <ele>221</ele>
        <time>2011-03-14T00:08:39Z</time>
      </trkpt>
      <trkpt lat="48.61529" lon="6.32795">
        <ele>221</ele>
        <time>2011-03-14T00:08:47Z</time>
      </trkpt>
      <trkpt lat="48.61441" lon="6.32875">
        <ele>223</ele>
        <time>2011-03-14T00:09:04Z</time>
      </trkpt>
      <trkpt lat="48.61358" lon="6.32966">
        <ele>220</ele>
        <time>2011-03-14T00:09:18Z</time>
      </trkpt>
      <trkpt lat="48.61309" lon="6.33022">
        <ele>218</ele>
        <time>2011-03-14T00:09:26Z</time>
      </trkpt>
      <trkpt lat="48.61254" lon="6.33101">
        <ele>216</ele>
        <time>2011-03-14T00:09:36Z</time>
      </trkpt>
      <trkpt lat="48.61225" lon="6.33136">
        <ele>216</ele>
        <time>2011-03-14T00:09:41Z</time>
      </trkpt>
      <trkpt lat="48.61178" lon="6.33155">
        <ele>216</ele>
        <time>2011-03-14T00:09:47Z</time>
      </trkpt>
      <trkpt lat="48.61027" lon="6.33182">
        <ele>216</ele>
        <time>2011-03-14T00:10:08Z</time>
      </trkpt>
      <trkpt lat="48.60827" lon="6.3324">
        <ele>211</ele>
        <time>2011-03-14T00:10:35Z</time>
      </trkpt>
      <trkpt lat="48.60794" lon="6.33244">
        <ele>211</ele>
        <time>2011-03-14T00:10:39Z</time>
      </trkpt>
      <trkpt lat="48.60762" lon="6.33237">
        <ele>211</ele>
        <time>2011-03-14T00:10:44Z</time>
      </trkpt>
      <trkpt lat="48.60747" lon="6.33227">
        <ele>211</ele>
        <time>2011-03-14T00:10:46Z</time>
      </trkpt>
      <trkpt lat="48.60512" lon="6.33051">
        <ele>211</ele>
        <time>2011-03-14T00:11:21Z</time>
      </trkpt>
      <trkpt lat="48.60408" lon="6.32967">
        <ele>211</ele>
        <time>2011-03-14T00:11:37Z</time>
      </trkpt>
      <trkpt lat="48.60387" lon="6.32947">
        <ele>211</ele>
        <time>2011-03-14T00:11:41Z</time>
      </trkpt>
      <trkpt lat="48.60359" lon="6.32904">
        <ele>211</ele>
        <time>2011-03-14T00:11:47Z</time>
      </trkpt>
      <trkpt lat="48.60335" lon="6.32887">
        <ele>212</ele>
        <time>2011-03-14T00:11:51Z</time>
      </trkpt>
      <trkpt lat="48.60281" lon="6.32883">
        <ele>210</ele>
        <time>2011-03-14T00:11:59Z</time>
      </trkpt>
      <trkpt lat="48.60146" lon="6.32952">
        <ele>205</ele>
        <time>2011-03-14T00:12:18Z</time>
      </trkpt>
      <trkpt lat="48.59993" lon="6.32999">
        <ele>207</ele>
        <time>2011-03-14T00:12:43Z</time>
      </trkpt>
      <trkpt lat="48.59843" lon="6.32989">
        <ele>210</ele>
        <time>2011-03-14T00:13:10Z</time>
      </trkpt>
      <trkpt lat="48.59728" lon="6.33036">
        <ele>207</ele>
        <time>2011-03-14T00:13:26Z</time>
      </trkpt>
      <trkpt lat="48.59641" lon="6.33046">
        <ele>208</ele>
        <time>2011-03-14T00:13:42Z</time>
      </trkpt>
      <trkpt lat="48.59582" lon="6.33047">
        <ele>210</ele>
        <time>2011-03-14T00:13:53Z</time>
      </trkpt>
      <trkpt lat="48.59541" lon="6.33038">
        <ele>211</ele>
        <time>2011-03-14T00:14:02Z</time>
      </trkpt>
      <trkpt lat="48.59523" lon="6.33031">
        <ele>211</ele>
        <time>2011-03-14T00:14:06Z</time>
      </trkpt>
      <trkpt lat="48.59406" lon="6.32949">
        <ele>216</ele>
        <time>2011-03-14T00:14:33Z</time>
      </trkpt>
      <trkpt lat="48.59377" lon="6.32934">
        <ele>215</ele>
        <time>2011-03-14T00:14:37Z</time>
      </trkpt>
      <trkpt lat="48.59326" lon="6.32925">
        <ele>215</ele>
        <time>2011-03-14T00:14:44Z</time>
      </trkpt>
      <trkpt lat="48.59313" lon="6.32927">
        <ele>215</ele>
        <time>2011-03-14T00:14:45Z</time>
      </trkpt>
      <trkpt lat="48.59281" lon="6.32954">
        <ele>213</ele>
        <time>2011-03-14T00:14:50Z</time>
      </trkpt>
      <trkpt lat="48.59241" lon="6.33053">
        <ele>209</ele>
        <time>2011-03-14T00:15:01Z</time>
      </trkpt>
      <trkpt lat="48.5921" lon="6.33297">
        <ele>208</ele>
        <time>2011-03-14T00:15:23Z</time>
      </trkpt>
      <trkpt lat="48.59202" lon="6.33297">
        <ele>208</ele>
        <time>2011-03-14T00:15:24Z</time>
      </trkpt>
      <trkpt lat="48.59196" lon="6.33303">
        <ele>208</ele>
        <time>2011-03-14T00:15:25Z</time>
      </trkpt>
      <trkpt lat="48.59193" lon="6.33316">
        <ele>208</ele>
        <time>2011-03-14T00:15:26Z</time>
      </trkpt>
      <trkpt lat="48.58561" lon="6.33191">
        <ele>213</ele>
        <time>2011-03-14T00:17:03Z</time>
      </trkpt>
      <trkpt lat="48.58343" lon="6.33141">
        <ele>215</ele>
        <time>2011-03-14T00:17:37Z</time>
      </trkpt>
      <trkpt lat="48.58248" lon="6.33124">
        <ele>217</ele>
        <time>2011-03-14T00:17:55Z</time>
      </trkpt>
      <trkpt lat="48.58154" lon="6.33085">
        <ele>221</ele>
        <time>2011-03-14T00:18:17Z</time>
      </trkpt>
      <trkpt lat="48.58116" lon="6.33064">
        <ele>222</ele>
        <time>2011-03-14T00:18:25Z</time>
      </trkpt>
      <trkpt lat="48.57948" lon="6.32951">
        <ele>227</ele>
        <time>2011-03-14T00:19:02Z</time>
      </trkpt>
      <trkpt lat="48.57203" lon="6.32438">
        <ele>252</ele>
        <time>2011-03-14T00:21:51Z</time>
      </trkpt>
      <trkpt lat="48.56247" lon="6.31777">
        <ele>304</ele>
        <time>2011-03-14T00:26:16Z</time>
      </trkpt>
      <trkpt lat="48.5593" lon="6.31552">
        <ele>331</ele>
        <time>2011-03-14T00:28:08Z</time>
      </trkpt>
      <trkpt lat="48.5593" lon="6.31552">
        <ele>331</ele>
        <time>2011-03-14T00:28:09Z</time>
      </trkpt>
      <trkpt lat="48.55864" lon="6.31495">
        <ele>334</ele>
        <time>2011-03-14T00:28:27Z</time>
      </trkpt>
      <trkpt lat="48.55695" lon="6.31312">
        <ele>343</ele>
        <time>2011-03-14T00:29:16Z</time>
      </trkpt>
      <trkpt lat="48.55664" lon="6.31285">
        <ele>344</ele>
        <time>2011-03-14T00:29:24Z</time>
      </trkpt>
      <trkpt lat="48.55642" lon="6.31274">
        <ele>345</ele>
        <time>2011-03-14T00:29:29Z</time>
      </trkpt>
      <trkpt lat="48.55602" lon="6.31276">
        <ele>347</ele>
        <time>2011-03-14T00:29:38Z</time>
      </trkpt>
      <trkpt lat="48.55575" lon="6.31189">
        <ele>345</ele>
        <time>2011-03-14T00:29:47Z</time>
      </trkpt>
      <trkpt lat="48.55567" lon="6.31135">
        <ele>345</ele>
        <time>2011-03-14T00:29:52Z</time>
      </trkpt>
      <trkpt lat="48.55555" lon="6.31116">
        <ele>344</ele>
        <time>2011-03-14T00:29:54Z</time>
      </trkpt>
      <trkpt lat="48.55133" lon="6.30532">
        <ele>341</ele>
        <time>2011-03-14T00:31:11Z</time>
      </trkpt>
      <trkpt lat="48.54829" lon="6.30129">
        <ele>335</ele>
        <time>2011-03-14T00:32:05Z</time>
      </trkpt>
      <trkpt lat="48.54814" lon="6.30101">
        <ele>334</ele>
        <time>2011-03-14T00:32:08Z</time>
      </trkpt>
      <trkpt lat="48.54813" lon="6.30084">
        <ele>334</ele>
        <time>2011-03-14T00:32:09Z</time>
      </trkpt>
      <trkpt lat="48.54785" lon="6.30074">
        <ele>334</ele>
        <time>2011-03-14T00:32:13Z</time>
      </trkpt>
      <trkpt lat="48.54533" lon="6.29733">
        <ele>329</ele>
        <time>2011-03-14T00:32:58Z</time>
      </trkpt>
      <trkpt lat="48.54425" lon="6.29604">
        <ele>327</ele>
        <time>2011-03-14T00:33:17Z</time>
      </trkpt>
      <trkpt lat="48.5424" lon="6.29349">
        <ele>320</ele>
        <time>2011-03-14T00:33:50Z</time>
      </trkpt>
      <trkpt lat="48.54182" lon="6.2926">
        <ele>316</ele>
        <time>2011-03-14T00:34:01Z</time>
      </trkpt>
      <trkpt lat="48.54057" lon="6.29093">
        <ele>310</ele>
        <time>2011-03-14T00:34:24Z</time>
      </trkpt>
      <trkpt lat="48.53753" lon="6.28259">
        <ele>302</ele>
        <time>2011-03-14T00:35:48Z</time>
      </trkpt>
      <trkpt lat="48.5369" lon="6.28072">
        <ele>295</ele>
        <time>2011-03-14T00:36:06Z</time>
      </trkpt>
      <trkpt lat="48.53601" lon="6.27834">
        <ele>287</ele>
        <time>2011-03-14T00:36:31Z</time>
      </trkpt>
      <trkpt lat="48.53556" lon="6.27701">
        <ele>282</ele>
        <time>2011-03-14T00:36:44Z</time>
      </trkpt>
      <trkpt lat="48.53531" lon="6.27647">
        <ele>278</ele>
        <time>2011-03-14T00:36:50Z</time>
      </trkpt>
      <trkpt lat="48.53508" lon="6.2762">
        <ele>276</ele>
        <time>2011-03-14T00:36:53Z</time>
      </trkpt>
      <trkpt lat="48.53508" lon="6.2762">
        <ele>276</ele>
        <time>2011-03-14T00:36:54Z</time>
      </trkpt>
      <trkpt lat="48.53478" lon="6.27603">
        <ele>272</ele>
        <time>2011-03-14T00:36:59Z</time>
      </trkpt>
      <trkpt lat="48.53131" lon="6.27527">
        <ele>240</ele>
        <time>2011-03-14T00:37:46Z</time>
      </trkpt>
      <trkpt lat="48.53115" lon="6.27518">
        <ele>239</ele>
        <time>2011-03-14T00:37:48Z</time>
      </trkpt>
      <trkpt lat="48.53015" lon="6.27499">
        <ele>234</ele>
        <time>2011-03-14T00:38:01Z</time>
      </trkpt>
      <trkpt lat="48.53003" lon="6.27503">
        <ele>234</ele>
        <time>2011-03-14T00:38:03Z</time>
      </trkpt>
      <trkpt lat="48.52463" lon="6.26885">
        <ele>237</ele>
        <time>2011-03-14T00:39:41Z</time>
      </trkpt>
      <trkpt lat="48.52427" lon="6.2685">
        <ele>237</ele>
        <time>2011-03-14T00:39:47Z</time>
      </trkpt>
      <trkpt lat="48.52385" lon="6.26833">
        <ele>237</ele>
        <time>2011-03-14T00:39:54Z</time>
      </trkpt>
      <trkpt lat="48.52373" lon="6.26823">
        <ele>238</ele>
        <time>2011-03-14T00:39:56Z</time>
      </trkpt>
      <trkpt lat="48.52362" lon="6.26806">
        <ele>238</ele>
        <time>2011-03-14T00:39:59Z</time>
      </trkpt>
      <trkpt lat="48.52341" lon="6.26748">
        <ele>238</ele>
        <time>2011-03-14T00:40:04Z</time>
      </trkpt>
      <trkpt lat="48.52326" lon="6.26727">
        <ele>238</ele>
        <time>2011-03-14T00:40:07Z</time>
      </trkpt>
      <trkpt lat="48.52299" lon="6.26717">
        <ele>238</ele>
        <time>2011-03-14T00:40:11Z</time>
      </trkpt>
      <trkpt lat="48.52286" lon="6.26685">
        <ele>238</ele>
        <time>2011-03-14T00:40:14Z</time>
      </trkpt>
      <trkpt lat="48.52254" lon="6.26701">
        <ele>238</ele>
        <time>2011-03-14T00:40:19Z</time>
      </trkpt>
      <trkpt lat="48.52185" lon="6.26747">
        <ele>238</ele>
        <time>2011-03-14T00:40:29Z</time>
      </trkpt>
      <trkpt lat="48.52172" lon="6.26764">
        <ele>238</ele>
        <time>2011-03-14T00:40:31Z</time>
      </trkpt>
      <trkpt lat="48.52119" lon="6.26799">
        <ele>238</ele>
        <time>2011-03-14T00:40:40Z</time>
      </trkpt>
      <trkpt lat="48.51869" lon="6.26991">
        <ele>241</ele>
        <time>2011-03-14T00:41:23Z</time>
      </trkpt>
      <trkpt lat="48.51439" lon="6.27324">
        <ele>239</ele>
        <time>2011-03-14T00:42:28Z</time>
      </trkpt>
      <trkpt lat="48.51213" lon="6.27506">
        <ele>238</ele>
        <time>2011-03-14T00:43:02Z</time>
      </trkpt>
      <trkpt lat="48.50965" lon="6.2769">
        <ele>239</ele>
        <time>2011-03-14T00:43:42Z</time>
      </trkpt>
      <trkpt lat="48.508" lon="6.27824">
        <ele>239</ele>
        <time>2011-03-14T00:44:07Z</time>
      </trkpt>
      <trkpt lat="48.50322" lon="6.28188">
        <ele>241</ele>
        <time>2011-03-14T00:45:23Z</time>
      </trkpt>
      <trkpt lat="48.50238" lon="6.28267">
        <ele>242</ele>
        <time>2011-03-14T00:45:38Z</time>
      </trkpt>
      <trkpt lat="48.49921" lon="6.28608">
        <ele>241</ele>
        <time>2011-03-14T00:46:30Z</time>
      </trkpt>
      <trkpt lat="48.498" lon="6.28683">
        <ele>242</ele>
        <time>2011-03-14T00:46:50Z</time>
      </trkpt>
      <trkpt lat="48.49467" lon="6.28864">
        <ele>244</ele>
        <time>2011-03-14T00:47:42Z</time>
      </trkpt>
      <trkpt lat="48.49467" lon="6.28864">
        <ele>244</ele>
        <time>2011-03-14T00:47:43Z</time>
      </trkpt>
      <trkpt lat="48.49319" lon="6.28927">
        <ele>245</ele>
        <time>2011-03-14T00:48:06Z</time>
      </trkpt>
      <trkpt lat="48.49315" lon="6.28924">
        <ele>245</ele>
        <time>2011-03-14T00:48:07Z</time>
      </trkpt>
      <trkpt lat="48.49266" lon="6.28809">
        <ele>249</ele>
        <time>2011-03-14T00:48:29Z</time>
      </trkpt>
      <trkpt lat="48.49249" lon="6.2879">
        <ele>248</ele>
        <time>2011-03-14T00:48:32Z</time>
      </trkpt>
      <trkpt lat="48.49233" lon="6.28791">
        <ele>248</ele>
        <time>2011-03-14T00:48:34Z</time>
      </trkpt>
      <trkpt lat="48.49166" lon="6.28823">
        <ele>247</ele>
        <time>2011-03-14T00:48:43Z</time>
      </trkpt>
      <trkpt lat="48.49109" lon="6.28858">
        <ele>246</ele>
        <time>2011-03-14T00:48:51Z</time>
      </trkpt>
      <trkpt lat="48.48927" lon="6.28986">
        <ele>243</ele>
        <time>2011-03-14T00:49:18Z</time>
      </trkpt>
      <trkpt lat="48.48741" lon="6.29105">
        <ele>241</ele>
        <time>2011-03-14T00:49:45Z</time>
      </trkpt>
      <trkpt lat="48.48626" lon="6.29194">
        <ele>242</ele>
        <time>2011-03-14T00:50:05Z</time>
      </trkpt>
      <trkpt lat="48.48428" lon="6.29332">
        <ele>241</ele>
        <time>2011-03-14T00:50:34Z</time>
      </trkpt>
      <trkpt lat="48.47803" lon="6.29745">
        <ele>244</ele>
        <time>2011-03-14T00:52:12Z</time>
      </trkpt>
      <trkpt lat="48.47709" lon="6.29788">
        <ele>244</ele>
        <time>2011-03-14T00:52:25Z</time>
      </trkpt>
      <trkpt lat="48.47633" lon="6.29802">
        <ele>244</ele>
        <time>2011-03-14T00:52:37Z</time>
      </trkpt>
      <trkpt lat="48.47602" lon="6.298">
        <ele>245</ele>
        <time>2011-03-14T00:52:42Z</time>
      </trkpt>
      <trkpt lat="48.47568" lon="6.29791">
        <ele>245</ele>
        <time>2011-03-14T00:52:47Z</time>
      </trkpt>
      <trkpt lat="48.47517" lon="6.29766">
        <ele>245</ele>
        <time>2011-03-14T00:52:56Z</time>
      </trkpt>
      <trkpt lat="48.4749" lon="6.29747">
        <ele>246</ele>
        <time>2011-03-14T00:53:00Z</time>
      </trkpt>
      <trkpt lat="48.47445" lon="6.29736">
        <ele>245</ele>
        <time>2011-03-14T00:53:06Z</time>
      </trkpt>
      <trkpt lat="48.47439" lon="6.29765">
        <ele>245</ele>
        <time>2011-03-14T00:53:09Z</time>
      </trkpt>
      <trkpt lat="48.4744" lon="6.29781">
        <ele>245</ele>
        <time>2011-03-14T00:53:10Z</time>
      </trkpt>
      <trkpt lat="48.47449" lon="6.29796">
        <ele>245</ele>
        <time>2011-03-14T00:53:12Z</time>
      </trkpt>
      <trkpt lat="48.47504" lon="6.29809">
        <ele>244</ele>
        <time>2011-03-14T00:53:20Z</time>
      </trkpt>
      <trkpt lat="48.47522" lon="6.29822">
        <ele>244</ele>
        <time>2011-03-14T00:53:22Z</time>
      </trkpt>
      <trkpt lat="48.47529" lon="6.2985">
        <ele>243</ele>
        <time>2011-03-14T00:53:25Z</time>
      </trkpt>
      <trkpt lat="48.47542" lon="6.29982">
        <ele>243</ele>
        <time>2011-03-14T00:53:37Z</time>
      </trkpt>
      <trkpt lat="48.4758" lon="6.30107">
        <ele>245</ele>
        <time>2011-03-14T00:53:54Z</time>
      </trkpt>
      <trkpt lat="48.47626" lon="6.30222">
        <ele>244</ele>
        <time>2011-03-14T00:54:06Z</time>
      </trkpt>
      <trkpt lat="48.47806" lon="6.30621">
        <ele>244</ele>
        <time>2011-03-14T00:54:48Z</time>
      </trkpt>
      <trkpt lat="48.47867" lon="6.30769">
        <ele>244</ele>
        <time>2011-03-14T00:55:04Z</time>
      </trkpt>
      <trkpt lat="48.47871" lon="6.30801">
        <ele>244</ele>
        <time>2011-03-14T00:55:07Z</time>
      </trkpt>
      <trkpt lat="48.47869" lon="6.30861">
        <ele>244</ele>
        <time>2011-03-14T00:55:14Z</time>
      </trkpt>
      <trkpt lat="48.47864" lon="6.309">
        <ele>245</ele>
        <time>2011-03-14T00:55:18Z</time>
      </trkpt>
      <trkpt lat="48.4784" lon="6.31006">
        <ele>246</ele>
        <time>2011-03-14T00:55:30Z</time>
      </trkpt>
      <trkpt lat="48.4784" lon="6.31006">
        <ele>246</ele>
        <time>2011-03-14T00:55:31Z</time>
      </trkpt>
      <trkpt lat="48.47801" lon="6.31116">
        <ele>248</ele>
        <time>2011-03-14T00:55:48Z</time>
      </trkpt>
      <trkpt lat="48.47769" lon="6.31172">
        <ele>250</ele>
        <time>2011-03-14T00:55:59Z</time>
      </trkpt>
      <trkpt lat="48.4771" lon="6.31249">
        <ele>254</ele>
        <time>2011-03-14T00:56:19Z</time>
      </trkpt>
      <trkpt lat="48.47668" lon="6.3129">
        <ele>257</ele>
        <time>2011-03-14T00:56:32Z</time>
      </trkpt>
      <trkpt lat="48.47691" lon="6.31344">
        <ele>255</ele>
        <time>2011-03-14T00:56:38Z</time>
      </trkpt>
      <trkpt lat="48.47723" lon="6.31401">
        <ele>253</ele>
        <time>2011-03-14T00:56:45Z</time>
      </trkpt>
      <trkpt lat="48.47882" lon="6.31655">
        <ele>246</ele>
        <time>2011-03-14T00:57:16Z</time>
      </trkpt>
      <trkpt lat="48.47917" lon="6.31652">
        <ele>247</ele>
        <time>2011-03-14T00:57:24Z</time>
      </trkpt>
      <trkpt lat="48.47961" lon="6.31658">
        <ele>249</ele>
        <time>2011-03-14T00:57:34Z</time>
      </trkpt>
      <trkpt lat="48.48027" lon="6.31621">
        <ele>252</ele>
        <time>2011-03-14T00:57:50Z</time>
      </trkpt>
      <trkpt lat="48.48068" lon="6.3158">
        <ele>253</ele>
        <time>2011-03-14T00:58:01Z</time>
      </trkpt>
      <trkpt lat="48.48105" lon="6.31522">
        <ele>256</ele>
        <time>2011-03-14T00:58:13Z</time>
      </trkpt>
      <trkpt lat="48.4828" lon="6.31212">
        <ele>274</ele>
        <time>2011-03-14T00:59:33Z</time>
      </trkpt>
      <trkpt lat="48.48321" lon="6.31156">
        <ele>275</ele>
        <time>2011-03-14T00:59:43Z</time>
      </trkpt>
      <trkpt lat="48.4836" lon="6.31119">
        <ele>276</ele>
        <time>2011-03-14T00:59:51Z</time>
      </trkpt>
      <trkpt lat="48.48398" lon="6.31094">
        <ele>277</ele>
        <time>2011-03-14T01:00:01Z</time>
      </trkpt>
      <trkpt lat="48.4857" lon="6.31038">
        <ele>285</ele>
        <time>2011-03-14T01:00:42Z</time>
      </trkpt>
      <trkpt lat="48.48623" lon="6.31032">
        <ele>287</ele>
        <time>2011-03-14T01:00:55Z</time>
      </trkpt>
      <trkpt lat="48.48659" lon="6.31035">
        <ele>289</ele>
        <time>2011-03-14T01:01:04Z</time>
      </trkpt>
      <trkpt lat="48.49115" lon="6.31172">
        <ele>313</ele>
        <time>2011-03-14T01:03:03Z</time>
      </trkpt>
      <trkpt lat="48.49179" lon="6.31201">
        <ele>313</ele>
        <time>2011-03-14T01:03:12Z</time>
      </trkpt>
      <trkpt lat="48.49335" lon="6.31297">
        <ele>313</ele>
        <time>2011-03-14T01:03:34Z</time>
      </trkpt>
      <trkpt lat="48.49335" lon="6.31298">
        <ele>312</ele>
        <time>2011-03-14T01:03:34Z</time>
      </trkpt>
      <trkpt lat="48.50054" lon="6.31734">
        <ele>288</ele>
        <time>2011-03-14T01:05:18Z</time>
      </trkpt>
      <trkpt lat="48.50095" lon="6.31743">
        <ele>288</ele>
        <time>2011-03-14T01:05:23Z</time>
      </trkpt>
      <trkpt lat="48.50108" lon="6.31738">
        <ele>288</ele>
        <time>2011-03-14T01:05:25Z</time>
      </trkpt>
      <trkpt lat="48.5013" lon="6.31718">
        <ele>288</ele>
        <time>2011-03-14T01:05:29Z</time>
      </trkpt>
      <trkpt lat="48.50119" lon="6.31676">
        <ele>288</ele>
        <time>2011-03-14T01:05:33Z</time>
      </trkpt>
      <trkpt lat="48.50105" lon="6.31535">
        <ele>288</ele>
        <time>2011-03-14T01:05:45Z</time>
      </trkpt>
      <trkpt lat="48.50066" lon="6.31368">
        <ele>286</ele>
        <time>2011-03-14T01:06:01Z</time>
      </trkpt>
      <trkpt lat="48.50043" lon="6.31297">
        <ele>285</ele>
        <time>2011-03-14T01:06:08Z</time>
      </trkpt>
      <trkpt lat="48.50011" lon="6.31216">
        <ele>284</ele>
        <time>2011-03-14T01:06:16Z</time>
      </trkpt>
      <trkpt lat="48.49937" lon="6.31043">
        <ele>275</ele>
        <time>2011-03-14T01:06:34Z</time>
      </trkpt>
      <trkpt lat="48.49922" lon="6.31">
        <ele>272</ele>
        <time>2011-03-14T01:06:39Z</time>
      </trkpt>
      <trkpt lat="48.49899" lon="6.30906">
        <ele>268</ele>
        <time>2011-03-14T01:06:48Z</time>
      </trkpt>
      <trkpt lat="48.49894" lon="6.30862">
        <ele>267</ele>
        <time>2011-03-14T01:06:52Z</time>
      </trkpt>
      <trkpt lat="48.49896" lon="6.30828">
        <ele>267</ele>
        <time>2011-03-14T01:06:55Z</time>
      </trkpt>
      <trkpt lat="48.49904" lon="6.30771">
        <ele>266</ele>
        <time>2011-03-14T01:07:00Z</time>
      </trkpt>
      <trkpt lat="48.49921" lon="6.30702">
        <ele>266</ele>
        <time>2011-03-14T01:07:06Z</time>
      </trkpt>
      <trkpt lat="48.49919" lon="6.30678">
        <ele>264</ele>
        <time>2011-03-14T01:07:08Z</time>
      </trkpt>
      <trkpt lat="48.4991" lon="6.30666">
        <ele>264</ele>
        <time>2011-03-14T01:07:10Z</time>
      </trkpt>
      <trkpt lat="48.49903" lon="6.30664">
        <ele>263</ele>
        <time>2011-03-14T01:07:11Z</time>
      </trkpt>
      <trkpt lat="48.49865" lon="6.30664">
        <ele>260</ele>
        <time>2011-03-14T01:07:16Z</time>
      </trkpt>
      <trkpt lat="48.49861" lon="6.30474">
        <ele>252</ele>
        <time>2011-03-14T01:07:33Z</time>
      </trkpt>
      <trkpt lat="48.49846" lon="6.30441">
        <ele>249</ele>
        <time>2011-03-14T01:07:36Z</time>
      </trkpt>
      <trkpt lat="48.49824" lon="6.30349">
        <ele>244</ele>
        <time>2011-03-14T01:07:45Z</time>
      </trkpt>
      <trkpt lat="48.49848" lon="6.30292">
        <ele>243</ele>
        <time>2011-03-14T01:07:51Z</time>
      </trkpt>
      <trkpt lat="48.49874" lon="6.3026">
        <ele>243</ele>
        <time>2011-03-14T01:07:56Z</time>
      </trkpt>
      <trkpt lat="48.5" lon="6.30208">
        <ele>243</ele>
        <time>2011-03-14T01:08:13Z</time>
      </trkpt>
      <trkpt lat="48.50121" lon="6.30166">
        <ele>246</ele>
        <time>2011-03-14T01:08:37Z</time>
      </trkpt>
      <trkpt lat="48.50197" lon="6.30158">
        <ele>246</ele>
        <time>2011-03-14T01:08:47Z</time>
      </trkpt>
      <trkpt lat="48.50275" lon="6.30169">
        <ele>246</ele>
        <time>2011-03-14T01:08:57Z</time>
      </trkpt>
      <trkpt lat="48.50305" lon="6.30176">
        <ele>244</ele>
        <time>2011-03-14T01:09:01Z</time>
      </trkpt>
      <trkpt lat="48.50345" lon="6.30194">
        <ele>243</ele>
        <time>2011-03-14T01:09:07Z</time>
      </trkpt>
      <trkpt lat="48.50379" lon="6.30218">
        <ele>242</ele>
        <time>2011-03-14T01:09:12Z</time>
      </trkpt>
      <trkpt lat="48.50449" lon="6.30294">
        <ele>243</ele>
        <time>2011-03-14T01:09:28Z</time>
      </trkpt>
      <trkpt lat="48.50545" lon="6.30411">
        <ele>246</ele>
        <time>2011-03-14T01:09:50Z</time>
      </trkpt>
      <trkpt lat="48.50613" lon="6.30511">
        <ele>250</ele>
        <time>2011-03-14T01:10:12Z</time>
      </trkpt>
      <trkpt lat="48.50684" lon="6.30655">
        <ele>249</ele>
        <time>2011-03-14T01:10:28Z</time>
      </trkpt>
      <trkpt lat="48.51079" lon="6.31495">
        <ele>264</ele>
        <time>2011-03-14T01:12:35Z</time>
      </trkpt>
      <trkpt lat="48.51208" lon="6.31719">
        <ele>260</ele>
        <time>2011-03-14T01:13:01Z</time>
      </trkpt>
      <trkpt lat="48.51313" lon="6.31855">
        <ele>265</ele>
        <time>2011-03-14T01:13:32Z</time>
      </trkpt>
      <trkpt lat="48.51361" lon="6.31886">
        <ele>269</ele>
        <time>2011-03-14T01:13:48Z</time>
      </trkpt>
      <trkpt lat="48.51413" lon="6.31891">
        <ele>273</ele>
        <time>2011-03-14T01:14:05Z</time>
      </trkpt>
      <trkpt lat="48.51442" lon="6.31918">
        <ele>271</ele>
        <time>2011-03-14T01:14:09Z</time>
      </trkpt>
      <trkpt lat="48.51575" lon="6.31993">
        <ele>265</ele>
        <time>2011-03-14T01:14:28Z</time>
      </trkpt>
      <trkpt lat="48.51659" lon="6.32019">
        <ele>265</ele>
        <time>2011-03-14T01:14:40Z</time>
      </trkpt>
      <trkpt lat="48.51738" lon="6.32036">
        <ele>265</ele>
        <time>2011-03-14T01:14:51Z</time>
      </trkpt>
      <trkpt lat="48.51807" lon="6.32062">
        <ele>263</ele>
        <time>2011-03-14T01:15:00Z</time>
      </trkpt>
      <trkpt lat="48.5196" lon="6.32133">
        <ele>260</ele>
        <time>2011-03-14T01:15:21Z</time>
      </trkpt>
      <trkpt lat="48.51993" lon="6.32156">
        <ele>260</ele>
        <time>2011-03-14T01:15:27Z</time>
      </trkpt>
      <trkpt lat="48.52022" lon="6.32195">
        <ele>260</ele>
        <time>2011-03-14T01:15:33Z</time>
      </trkpt>
      <trkpt lat="48.52197" lon="6.32494">
        <ele>263</ele>
        <time>2011-03-14T01:16:14Z</time>
      </trkpt>
      <trkpt lat="48.52259" lon="6.32517">
        <ele>265</ele>
        <time>2011-03-14T01:16:29Z</time>
      </trkpt>
      <trkpt lat="48.5228" lon="6.32534">
        <ele>266</ele>
        <time>2011-03-14T01:16:34Z</time>
      </trkpt>
      <trkpt lat="48.52321" lon="6.32594">
        <ele>269</ele>
        <time>2011-03-14T01:16:48Z</time>
      </trkpt>
      <trkpt lat="48.52346" lon="6.32641">
        <ele>268</ele>
        <time>2011-03-14T01:16:53Z</time>
      </trkpt>
      <trkpt lat="48.52386" lon="6.32697">
        <ele>268</ele>
        <time>2011-03-14T01:17:00Z</time>
      </trkpt>
      <trkpt lat="48.52411" lon="6.32724">
        <ele>268</ele>
        <time>2011-03-14T01:17:07Z</time>
      </trkpt>
      <trkpt lat="48.52432" lon="6.32736">
        <ele>269</ele>
        <time>2011-03-14T01:17:11Z</time>
      </trkpt>
      <trkpt lat="48.52483" lon="6.32751">
        <ele>271</ele>
        <time>2011-03-14T01:17:22Z</time>
      </trkpt>
      <trkpt lat="48.52542" lon="6.32751">
        <ele>272</ele>
        <time>2011-03-14T01:17:34Z</time>
      </trkpt>
      <trkpt lat="48.52585" lon="6.32735">
        <ele>274</ele>
        <time>2011-03-14T01:17:43Z</time>
      </trkpt>
      <trkpt lat="48.52651" lon="6.32687">
        <ele>274</ele>
        <time>2011-03-14T01:17:52Z</time>
      </trkpt>
      <trkpt lat="48.52651" lon="6.32687">
        <ele>274</ele>
        <time>2011-03-14T01:17:53Z</time>
      </trkpt>
      <trkpt lat="48.52688" lon="6.32655">
        <ele>273</ele>
        <time>2011-03-14T01:17:59Z</time>
      </trkpt>
      <trkpt lat="48.52701" lon="6.32649">
        <ele>273</ele>
        <time>2011-03-14T01:18:01Z</time>
      </trkpt>
      <trkpt lat="48.5279" lon="6.32642">
        <ele>273</ele>
        <time>2011-03-14T01:18:13Z</time>
      </trkpt>
      <trkpt lat="48.52865" lon="6.32611">
        <ele>275</ele>
        <time>2011-03-14T01:18:28Z</time>
      </trkpt>
      <trkpt lat="48.5298" lon="6.32609">
        <ele>278</ele>
        <time>2011-03-14T01:18:51Z</time>
      </trkpt>
      <trkpt lat="48.53124" lon="6.32833">
        <ele>281</ele>
        <time>2011-03-14T01:19:25Z</time>
      </trkpt>
      <trkpt lat="48.53133" lon="6.32861">
        <ele>282</ele>
        <time>2011-03-14T01:19:31Z</time>
      </trkpt>
      <trkpt lat="48.53135" lon="6.32909">
        <ele>283</ele>
        <time>2011-03-14T01:19:39Z</time>
      </trkpt>
      <trkpt lat="48.53079" lon="6.33128">
        <ele>292</ele>
        <time>2011-03-14T01:20:20Z</time>
      </trkpt>
      <trkpt lat="48.53077" lon="6.3318">
        <ele>292</ele>
        <time>2011-03-14T01:20:26Z</time>
      </trkpt>
      <trkpt lat="48.53083" lon="6.33207">
        <ele>293</ele>
        <time>2011-03-14T01:20:29Z</time>
      </trkpt>
      <trkpt lat="48.53144" lon="6.33333">
        <ele>295</ele>
        <time>2011-03-14T01:20:48Z</time>
      </trkpt>
      <trkpt lat="48.53428" lon="6.33886">
        <ele>295</ele>
        <time>2011-03-14T01:21:50Z</time>
      </trkpt>
      <trkpt lat="48.53542" lon="6.34085">
        <ele>298</ele>
        <time>2011-03-14T01:22:20Z</time>
      </trkpt>
      <trkpt lat="48.53574" lon="6.34152">
        <ele>296</ele>
        <time>2011-03-14T01:22:27Z</time>
      </trkpt>
      <trkpt lat="48.53626" lon="6.34282">
        <ele>293</ele>
        <time>2011-03-14T01:22:41Z</time>
      </trkpt>
      <trkpt lat="48.53757" lon="6.34638">
        <ele>284</ele>
        <time>2011-03-14T01:23:17Z</time>
      </trkpt>
      <trkpt lat="48.54241" lon="6.35909">
        <ele>253</ele>
        <time>2011-03-14T01:25:26Z</time>
      </trkpt>
      <trkpt lat="48.54309" lon="6.36064">
        <ele>249</ele>
        <time>2011-03-14T01:25:43Z</time>
      </trkpt>
      <trkpt lat="48.5461" lon="6.3668">
        <ele>244</ele>
        <time>2011-03-14T01:26:51Z</time>
      </trkpt>
      <trkpt lat="48.5468" lon="6.36835">
        <ele>241</ele>
        <time>2011-03-14T01:27:07Z</time>
      </trkpt>
      <trkpt lat="48.54783" lon="6.37075">
        <ele>238</ele>
        <time>2011-03-14T01:27:33Z</time>
      </trkpt>
      <trkpt lat="48.54844" lon="6.37234">
        <ele>238</ele>
        <time>2011-03-14T01:27:49Z</time>
      </trkpt>
      <trkpt lat="48.5505" lon="6.37724">
        <ele>234</ele>
        <time>2011-03-14T01:28:40Z</time>
      </trkpt>
      <trkpt lat="48.55132" lon="6.37965">
        <ele>236</ele>
        <time>2011-03-14T01:29:09Z</time>
      </trkpt>
      <trkpt lat="48.55169" lon="6.38053">
        <ele>234</ele>
        <time>2011-03-14T01:29:18Z</time>
      </trkpt>
      <trkpt lat="48.55327" lon="6.38316">
        <ele>231</ele>
        <time>2011-03-14T01:29:49Z</time>
      </trkpt>
      <trkpt lat="48.5531" lon="6.38338">
        <ele>231</ele>
        <time>2011-03-14T01:29:52Z</time>
      </trkpt>
      <trkpt lat="48.5531" lon="6.38338">
        <ele>231</ele>
        <time>2011-03-14T01:29:53Z</time>
      </trkpt>
      <trkpt lat="48.55327" lon="6.38316">
        <ele>230</ele>
        <time>2011-03-14T01:29:56Z</time>
      </trkpt>
      <trkpt lat="48.55507" lon="6.38621">
        <ele>225</ele>
        <time>2011-03-14T01:30:33Z</time>
      </trkpt>
      <trkpt lat="48.55533" lon="6.3864">
        <ele>224</ele>
        <time>2011-03-14T01:30:36Z</time>
      </trkpt>
      <trkpt lat="48.55605" lon="6.38679">
        <ele>223</ele>
        <time>2011-03-14T01:30:47Z</time>
      </trkpt>
      <trkpt lat="48.55822" lon="6.38779">
        <ele>213</ele>
        <time>2011-03-14T01:31:17Z</time>
      </trkpt>
      <trkpt lat="48.56143" lon="6.38852">
        <ele>212</ele>
        <time>2011-03-14T01:32:00Z</time>
      </trkpt>
      <trkpt lat="48.5626" lon="6.38988">
        <ele>217</ele>
        <time>2011-03-14T01:32:32Z</time>
      </trkpt>
      <trkpt lat="48.563" lon="6.39029">
        <ele>218</ele>
        <time>2011-03-14T01:32:41Z</time>
      </trkpt>
      <trkpt lat="48.56331" lon="6.39036">
        <ele>219</ele>
        <time>2011-03-14T01:32:48Z</time>
      </trkpt>
      <trkpt lat="48.56339" lon="6.39042">
        <ele>219</ele>
        <time>2011-03-14T01:32:49Z</time>
      </trkpt>
      <trkpt lat="48.56356" lon="6.39006">
        <ele>220</ele>
        <time>2011-03-14T01:32:55Z</time>
      </trkpt>
      <trkpt lat="48.5638" lon="6.38938">
        <ele>219</ele>
        <time>2011-03-14T01:33:02Z</time>
      </trkpt>
      <trkpt lat="48.56398" lon="6.38905">
        <ele>219</ele>
        <time>2011-03-14T01:33:06Z</time>
      </trkpt>
      <trkpt lat="48.56455" lon="6.3885">
        <ele>219</ele>
        <time>2011-03-14T01:33:15Z</time>
      </trkpt>
      <trkpt lat="48.56554" lon="6.3878">
        <ele>217</ele>
        <time>2011-03-14T01:33:29Z</time>
      </trkpt>
      <trkpt lat="48.56578" lon="6.38744">
        <ele>217</ele>
        <time>2011-03-14T01:33:34Z</time>
      </trkpt>
      <trkpt lat="48.5666" lon="6.38597">
        <ele>218</ele>
        <time>2011-03-14T01:33:53Z</time>
      </trkpt>
      <trkpt lat="48.56704" lon="6.38541">
        <ele>218</ele>
        <time>2011-03-14T01:34:03Z</time>
      </trkpt>
      <trkpt lat="48.56837" lon="6.38464">
        <ele>221</ele>
        <time>2011-03-14T01:34:27Z</time>
      </trkpt>
      <trkpt lat="48.56843" lon="6.38475">
        <ele>220</ele>
        <time>2011-03-14T01:34:28Z</time>
      </trkpt>
      <trkpt lat="48.56853" lon="6.38476">
        <ele>220</ele>
        <time>2011-03-14T01:34:30Z</time>
      </trkpt>
      <trkpt lat="48.5686" lon="6.38469">
        <ele>220</ele>
        <time>2011-03-14T01:34:31Z</time>
      </trkpt>
      <trkpt lat="48.56861" lon="6.38454">
        <ele>220</ele>
        <time>2011-03-14T01:34:32Z</time>
      </trkpt>
      <trkpt lat="48.56912" lon="6.38433">
        <ele>220</ele>
        <time>2011-03-14T01:34:39Z</time>
      </trkpt>
      <trkpt lat="48.56969" lon="6.38401">
        <ele>220</ele>
        <time>2011-03-14T01:34:47Z</time>
      </trkpt>
      <trkpt lat="48.57028" lon="6.38356">
        <ele>219</ele>
        <time>2011-03-14T01:34:56Z</time>
      </trkpt>
      <trkpt lat="48.57126" lon="6.38257">
        <ele>218</ele>
        <time>2011-03-14T01:35:12Z</time>
      </trkpt>
      <trkpt lat="48.57212" lon="6.38141">
        <ele>217</ele>
        <time>2011-03-14T01:35:27Z</time>
      </trkpt>
      <trkpt lat="48.57274" lon="6.38066">
        <ele>220</ele>
        <time>2011-03-14T01:35:45Z</time>
      </trkpt>
      <trkpt lat="48.5736" lon="6.37975">
        <ele>224</ele>
        <time>2011-03-14T01:36:09Z</time>
      </trkpt>
      <trkpt lat="48.57435" lon="6.37946">
        <ele>222</ele>
        <time>2011-03-14T01:36:19Z</time>
      </trkpt>
      <trkpt lat="48.57526" lon="6.37919">
        <ele>221</ele>
        <time>2011-03-14T01:36:31Z</time>
      </trkpt>
      <trkpt lat="48.57526" lon="6.37919">
        <ele>221</ele>
        <time>2011-03-14T01:36:32Z</time>
      </trkpt>
      <trkpt lat="48.57558" lon="6.37906">
        <ele>221</ele>
        <time>2011-03-14T01:36:38Z</time>
      </trkpt>
      <trkpt lat="48.57773" lon="6.37766">
        <ele>224</ele>
        <time>2011-03-14T01:37:15Z</time>
      </trkpt>
      <trkpt lat="48.57884" lon="6.37704">
        <ele>224</ele>
        <time>2011-03-14T01:37:31Z</time>
      </trkpt>
      <trkpt lat="48.57919" lon="6.37679">
        <ele>223</ele>
        <time>2011-03-14T01:37:36Z</time>
      </trkpt>
      <trkpt lat="48.57984" lon="6.37616">
        <ele>223</ele>
        <time>2011-03-14T01:37:47Z</time>
      </trkpt>
      <trkpt lat="48.58179" lon="6.37444">
        <ele>222</ele>
        <time>2011-03-14T01:38:17Z</time>
      </trkpt>
      <trkpt lat="48.58263" lon="6.37362">
        <ele>222</ele>
        <time>2011-03-14T01:38:30Z</time>
      </trkpt>
      <trkpt lat="48.58303" lon="6.37315">
        <ele>221</ele>
        <time>2011-03-14T01:38:37Z</time>
      </trkpt>
      <trkpt lat="48.5837" lon="6.37211">
        <ele>221</ele>
        <time>2011-03-14T01:38:50Z</time>
      </trkpt>
      <trkpt lat="48.58431" lon="6.37143">
        <ele>221</ele>
        <time>2011-03-14T01:39:00Z</time>
      </trkpt>
      <trkpt lat="48.58701" lon="6.36916">
        <ele>222</ele>
        <time>2011-03-14T01:39:44Z</time>
      </trkpt>
      <trkpt lat="48.5876" lon="6.36871">
        <ele>222</ele>
        <time>2011-03-14T01:39:53Z</time>
      </trkpt>
      <trkpt lat="48.58834" lon="6.36804">
        <ele>223</ele>
        <time>2011-03-14T01:40:06Z</time>
      </trkpt>
      <trkpt lat="48.5895" lon="6.36673">
        <ele>223</ele>
        <time>2011-03-14T01:40:26Z</time>
      </trkpt>
      <trkpt lat="48.59009" lon="6.36592">
        <ele>222</ele>
        <time>2011-03-14T01:40:36Z</time>
      </trkpt>
      <trkpt lat="48.59045" lon="6.36561">
        <ele>222</ele>
        <time>2011-03-14T01:40:42Z</time>
      </trkpt>
      <trkpt lat="48.59066" lon="6.3655">
        <ele>221</ele>
        <time>2011-03-14T01:40:45Z</time>
      </trkpt>
      <trkpt lat="48.59111" lon="6.36542">
        <ele>220</ele>
        <time>2011-03-14T01:40:51Z</time>
      </trkpt>
      <trkpt lat="48.5917" lon="6.36505">
        <ele>220</ele>
        <time>2011-03-14T01:40:59Z</time>
      </trkpt>
      <trkpt lat="48.59329" lon="6.36446">
        <ele>222</ele>
        <time>2011-03-14T01:41:26Z</time>
      </trkpt>
      <trkpt lat="48.59394" lon="6.3641">
        <ele>222</ele>
        <time>2011-03-14T01:41:37Z</time>
      </trkpt>
      <trkpt lat="48.59423" lon="6.364">
        <ele>223</ele>
        <time>2011-03-14T01:41:42Z</time>
      </trkpt>
      <trkpt lat="48.59674" lon="6.36383">
        <ele>225</ele>
        <time>2011-03-14T01:42:20Z</time>
      </trkpt>
      <trkpt lat="48.59701" lon="6.3638">
        <ele>225</ele>
        <time>2011-03-14T01:42:24Z</time>
      </trkpt>
      <trkpt lat="48.59874" lon="6.36329">
        <ele>225</ele>
        <time>2011-03-14T01:42:47Z</time>
      </trkpt>
      <trkpt lat="48.59942" lon="6.36326">
        <ele>224</ele>
        <time>2011-03-14T01:42:56Z</time>
      </trkpt>
      <trkpt lat="48.6007" lon="6.36301">
        <ele>223</ele>
        <time>2011-03-14T01:43:14Z</time>
      </trkpt>
      <trkpt lat="48.60139" lon="6.3627">
        <ele>221</ele>
        <time>2011-03-14T01:43:23Z</time>
      </trkpt>
      <trkpt lat="48.60187" lon="6.36231">
        <ele>220</ele>
        <time>2011-03-14T01:43:30Z</time>
      </trkpt>
      <trkpt lat="48.60236" lon="6.36179">
        <ele>219</ele>
        <time>2011-03-14T01:43:38Z</time>
      </trkpt>
      <trkpt lat="48.60305" lon="6.36079">
        <ele>218</ele>
        <time>2011-03-14T01:43:51Z</time>
      </trkpt>
      <trkpt lat="48.60342" lon="6.36075">
        <ele>216</ele>
        <time>2011-03-14T01:43:56Z</time>
      </trkpt>
      <trkpt lat="48.60355" lon="6.36062">
        <ele>216</ele>
        <time>2011-03-14T01:43:58Z</time>
      </trkpt>
      <trkpt lat="48.60361" lon="6.36049">
        <ele>216</ele>
        <time>2011-03-14T01:44:00Z</time>
      </trkpt>
      <trkpt lat="48.60361" lon="6.36028">
        <ele>215</ele>
        <time>2011-03-14T01:44:01Z</time>
      </trkpt>
      <trkpt lat="48.60374" lon="6.35984">
        <ele>215</ele>
        <time>2011-03-14T01:44:06Z</time>
      </trkpt>
      <trkpt lat="48.60452" lon="6.35842">
        <ele>214</ele>
        <time>2011-03-14T01:44:22Z</time>
      </trkpt>
      <trkpt lat="48.60481" lon="6.35763">
        <ele>214</ele>
        <time>2011-03-14T01:44:32Z</time>
      </trkpt>
      <trkpt lat="48.60507" lon="6.35723">
        <ele>215</ele>
        <time>2011-03-14T01:44:37Z</time>
      </trkpt>
      <trkpt lat="48.60534" lon="6.35699">
        <ele>215</ele>
        <time>2011-03-14T01:44:42Z</time>
      </trkpt>
      <trkpt lat="48.60721" lon="6.35602">
        <ele>217</ele>
        <time>2011-03-14T01:45:13Z</time>
      </trkpt>
      <trkpt lat="48.60871" lon="6.3555">
        <ele>217</ele>
        <time>2011-03-14T01:45:33Z</time>
      </trkpt>
      <trkpt lat="48.6098" lon="6.35484">
        <ele>218</ele>
        <time>2011-03-14T01:45:51Z</time>
      </trkpt>
      <trkpt lat="48.61066" lon="6.35409">
        <ele>219</ele>
        <time>2011-03-14T01:46:07Z</time>
      </trkpt>
      <trkpt lat="48.61165" lon="6.35357">
        <ele>220</ele>
        <time>2011-03-14T01:46:23Z</time>
      </trkpt>
      <trkpt lat="48.61159" lon="6.3532">
        <ele>220</ele>
        <time>2011-03-14T01:46:28Z</time>
      </trkpt>
      <trkpt lat="48.61202" lon="6.35332">
        <ele>221</ele>
        <time>2011-03-14T01:46:37Z</time>
      </trkpt>
      <trkpt lat="48.61279" lon="6.3532">
        <ele>224</ele>
        <time>2011-03-14T01:46:53Z</time>
      </trkpt>
      <trkpt lat="48.61642" lon="6.35261">
        <ele>219</ele>
        <time>2011-03-14T01:47:41Z</time>
      </trkpt>
      <trkpt lat="48.61778" lon="6.35203">
        <ele>212</ele>
        <time>2011-03-14T01:48:00Z</time>
      </trkpt>
      <trkpt lat="48.61799" lon="6.35218">
        <ele>212</ele>
        <time>2011-03-14T01:48:04Z</time>
      </trkpt>
      <trkpt lat="48.61821" lon="6.35182">
        <ele>212</ele>
        <time>2011-03-14T01:48:09Z</time>
      </trkpt>
      <trkpt lat="48.61826" lon="6.3518">
        <ele>212</ele>
        <time>2011-03-14T01:48:10Z</time>
      </trkpt>
      <trkpt lat="48.62229" lon="6.34981">
        <ele>217</ele>
        <time>2011-03-14T01:49:17Z</time>
      </trkpt>
      <trkpt lat="48.62262" lon="6.34954">
        <ele>216</ele>
        <time>2011-03-14T01:49:22Z</time>
      </trkpt>
      <trkpt lat="48.62554" lon="6.34636">
        <ele>213</ele>
        <time>2011-03-14T01:50:10Z</time>
      </trkpt>
      <trkpt lat="48.62657" lon="6.34453">
        <ele>208</ele>
        <time>2011-03-14T01:50:31Z</time>
      </trkpt>
      <trkpt lat="48.62694" lon="6.34395">
        <ele>207</ele>
        <time>2011-03-14T01:50:38Z</time>
      </trkpt>
      <trkpt lat="48.62789" lon="6.34293">
        <ele>207</ele>
        <time>2011-03-14T01:50:54Z</time>
      </trkpt>
      <trkpt lat="48.6281" lon="6.34236">
        <ele>208</ele>
        <time>2011-03-14T01:51:03Z</time>
      </trkpt>
      <trkpt lat="48.62863" lon="6.33981">
        <ele>214</ele>
        <time>2011-03-14T01:51:40Z</time>
      </trkpt>
      <trkpt lat="48.62913" lon="6.33789">
        <ele>211</ele>
        <time>2011-03-14T01:51:58Z</time>
      </trkpt>
      <trkpt lat="48.63125" lon="6.32878">
        <ele>208</ele>
        <time>2011-03-14T01:53:24Z</time>
      </trkpt>
      <trkpt lat="48.63125" lon="6.32878">
        <ele>208</ele>
        <time>2011-03-14T01:53:25Z</time>
      </trkpt>
      <trkpt lat="48.63188" lon="6.32635">
        <ele>206</ele>
        <time>2011-03-14T01:53:48Z</time>
      </trkpt>
      <trkpt lat="48.632" lon="6.32618">
        <ele>206</ele>
        <time>2011-03-14T01:53:51Z</time>
      </trkpt>
      <trkpt lat="48.63246" lon="6.32579">
        <ele>208</ele>
        <time>2011-03-14T01:54:02Z</time>
      </trkpt>
      <trkpt lat="48.63265" lon="6.32557">
        <ele>209</ele>
        <time>2011-03-14T01:54:07Z</time>
      </trkpt>
      <trkpt lat="48.6333" lon="6.32394">
        <ele>209</ele>
        <time>2011-03-14T01:54:24Z</time>
      </trkpt>
      <trkpt lat="48.63377" lon="6.32288">
        <ele>208</ele>
        <time>2011-03-14T01:54:35Z</time>
      </trkpt>
      <trkpt lat="48.63406" lon="6.32172">
        <ele>208</ele>
        <time>2011-03-14T01:54:46Z</time>
      </trkpt>
      <trkpt lat="48.6353" lon="6.31567">
        <ele>208</ele>
        <time>2011-03-14T01:55:42Z</time>
      </trkpt>
      <trkpt lat="48.63593" lon="6.31454">
        <ele>210</ele>
        <time>2011-03-14T01:56:00Z</time>
      </trkpt>
      <trkpt lat="48.6362" lon="6.31392">
        <ele>212</ele>
        <time>2011-03-14T01:56:13Z</time>
      </trkpt>
      <trkpt lat="48.6364" lon="6.31321">
        <ele>215</ele>
        <time>2011-03-14T01:56:25Z</time>
      </trkpt>
      <trkpt lat="48.63652" lon="6.3124">
        <ele>213</ele>
        <time>2011-03-14T01:56:33Z</time>
      </trkpt>
      <trkpt lat="48.63646" lon="6.31195">
        <ele>212</ele>
        <time>2011-03-14T01:56:37Z</time>
      </trkpt>
      <trkpt lat="48.63637" lon="6.31175">
        <ele>212</ele>
        <time>2011-03-14T01:56:39Z</time>
      </trkpt>
      <trkpt lat="48.6363" lon="6.31164">
        <ele>211</ele>
        <time>2011-03-14T01:56:40Z</time>
      </trkpt>
      <trkpt lat="48.63496" lon="6.3107">
        <ele>205</ele>
        <time>2011-03-14T01:57:00Z</time>
      </trkpt>
      <trkpt lat="48.63477" lon="6.31077">
        <ele>204</ele>
        <time>2011-03-14T01:57:03Z</time>
      </trkpt>
      <trkpt lat="48.63447" lon="6.31109">
        <ele>204</ele>
        <time>2011-03-14T01:57:08Z</time>
      </trkpt>
      <trkpt lat="48.63433" lon="6.31123">
        <ele>204</ele>
        <time>2011-03-14T01:57:10Z</time>
      </trkpt>
      <trkpt lat="48.63388" lon="6.31224">
        <ele>204</ele>
        <time>2011-03-14T01:57:21Z</time>
      </trkpt>
      <trkpt lat="48.63384" lon="6.31238">
        <ele>204</ele>
        <time>2011-03-14T01:57:22Z</time>
      </trkpt>
      <trkpt lat="48.63384" lon="6.31263">
        <ele>204</ele>
        <time>2011-03-14T01:57:25Z</time>
      </trkpt>
      <trkpt lat="48.63393" lon="6.31285">
        <ele>204</ele>
        <time>2011-03-14T01:57:27Z</time>
      </trkpt>
      <trkpt lat="48.63355" lon="6.31376">
        <ele>205</ele>
        <time>2011-03-14T01:57:38Z</time>
      </trkpt>
      <trkpt lat="48.63401" lon="6.31418">
        <ele>205</ele>
        <time>2011-03-14T01:57:46Z</time>
      </trkpt>
    </trkseg>
  </trk>
</gpx>